»·PEaware :: N16RD KCMA-KSNA

N16RD :: KCMA-KSNA

FLIGHT INFORMATION

Flight Status: Arrived
Operator: Privately registered:
United States
More flights under this callsign
Pilot: Brett B. (12105)
Aircraft: CESSNA 172 SKYHAWK
(C172)
More flights by this aircraft type
Origin: KCMA Camarillo
United States
Destination: KSNA John Wayne-Orange Co
United States
More flights between these airports :: More routes between these airports
Route: +VTU044 GINNA V326 VNY V186 BAYJY V363 POXKU V8 SLI
File this flight plan on PilotEdge
Remarks:
Altitude:
(Current/Filed)
5,000ft
Speed:
(Current/Filed)
112kts
Departed: 10-Feb-19 09:22 PM
Arrived: 10-Feb-19 10:19 PM
Distance/Time
Traveled:
4nm/0:57
Distance/Time
To Go:
Arrived

Flight Plot

Page will automatically refresh every two minutes.


Map Options




Map Legend


Flown Route
Filed Route
Departure Airport
Arrival Airport
Navaid (VOR, NDB)
Fix

Horizontal Profiles

Position Reports

Time Latitude Longitude Heading Altitude Ground
Speed
10-Feb-19 21:20 34.259344 -119.162426 57 4233ft 79kts
10-Feb-19 21:21 34.254087 -119.147361 116 4451ft 59kts
10-Feb-19 21:22 34.246883 -119.129784 118 4566ft 58kts
10-Feb-19 21:23 34.239948 -119.111673 117 4745ft 59kts
10-Feb-19 21:24 34.233227 -119.092948 116 4918ft 62kts
10-Feb-19 21:25 34.226135 -119.071666 114 5170ft 86kts
10-Feb-19 21:26 34.215864 -119.035371 98 5103ft 123kts
10-Feb-19 21:27 34.214860 -118.997199 83 5097ft 123kts
10-Feb-19 21:28 34.214923 -118.995523 83 5097ft 123kts
10-Feb-19 21:29 34.216506 -118.961672 83 4997ft 126kts
10-Feb-19 21:30 34.217987 -118.932032 82 4998ft 121kts
10-Feb-19 21:31 34.219912 -118.893968 82 4999ft 120kts
10-Feb-19 21:32 34.221839 -118.855532 82 4999ft 121kts
10-Feb-19 21:33 34.223025 -118.815008 86 5003ft 121kts
10-Feb-19 21:34 34.223178 -118.774137 86 5005ft 121kts
10-Feb-19 21:35 34.223263 -118.733246 86 4997ft 121kts
10-Feb-19 21:36 34.223331 -118.694092 86 4998ft 121kts
10-Feb-19 21:37 34.223349 -118.653458 86 5003ft 122kts
10-Feb-19 21:38 34.223323 -118.612461 87 5000ft 120kts
10-Feb-19 21:39 34.223453 -118.571751 87 4987ft 121kts
10-Feb-19 21:40 34.223471 -118.530927 87 4988ft 121kts
10-Feb-19 21:41 34.222311 -118.490331 103 4989ft 121kts
10-Feb-19 21:42 34.211296 -118.451567 108 4986ft 122kts
10-Feb-19 21:43 34.199618 -118.412915 109 4986ft 122kts
10-Feb-19 21:44 34.187971 -118.374529 110 4979ft 120kts
10-Feb-19 21:45 34.176399 -118.336425 111 4966ft 120kts
10-Feb-19 21:46 34.165160 -118.299523 111 4952ft 114kts
10-Feb-19 21:47 34.154424 -118.264282 111 4997ft 111kts
10-Feb-19 21:48 34.143659 -118.229003 111 4993ft 112kts
10-Feb-19 21:49 34.132886 -118.193700 111 5001ft 111kts
10-Feb-19 21:50 34.122114 -118.158471 111 5004ft 112kts
10-Feb-19 21:51 34.110852 -118.121704 112 5044ft 134kts
10-Feb-19 21:52 34.098976 -118.082854 113 5033ft 114kts
10-Feb-19 21:53 34.087514 -118.045628 108 5061ft 121kts
10-Feb-19 21:54 34.072668 -118.009616 162 5056ft 120kts
10-Feb-19 21:55 34.042196 -118.004559 178 5001ft 118kts
10-Feb-19 21:56 34.022180 -118.012552 271 5002ft 106kts
10-Feb-19 21:57 34.041963 -118.031891 333 5002ft 107kts
10-Feb-19 21:58 34.058447 -118.047643 259 4999ft 108kts
10-Feb-19 21:59 34.029253 -118.044874 161 5001ft 122kts
10-Feb-19 22:00 33.997513 -118.030711 161 4999ft 121kts
10-Feb-19 22:01 33.965951 -118.016645 161 5016ft 112kts
10-Feb-19 22:02 33.935281 -118.002827 161 4430ft 132kts
10-Feb-19 22:03 33.900097 -117.986818 161 3994ft 130kts
10-Feb-19 22:04 33.867445 -117.971947 151 3985ft 124kts
10-Feb-19 22:05 33.846671 -117.939210 121 4001ft 125kts
10-Feb-19 22:06 33.839714 -117.901309 71 4005ft 122kts
10-Feb-19 22:07 33.848756 -117.861443 71 4002ft 123kts
10-Feb-19 22:08 33.857762 -117.821772 71 4002ft 123kts
10-Feb-19 22:09 33.866800 -117.781984 71 4002ft 123kts
10-Feb-19 22:10 33.845727 -117.763560 197 3992ft 120kts
10-Feb-19 22:11 33.816217 -117.779689 196 3586ft 114kts
10-Feb-19 22:13 33.788183 -117.796358 215 2973ft 109kts
10-Feb-19 22:14 33.762310 -117.814390 210 2395ft 110kts
10-Feb-19 22:15 33.737644 -117.829835 208 1321ft 92kts
10-Feb-19 22:16 33.717349 -117.842402 209 1253ft 87kts
10-Feb-19 22:17 33.698170 -117.854446 206 658ft 67kts
10-Feb-19 22:18 33.682290 -117.864572 206 118ft 60kts
10-Feb-19 22:19 33.677922 -117.868089 294 59ft 0kts
10-Feb-19 22:20 33.675694 -117.870377 206 59ft 11kts
10-Feb-19 22:21 33.675429 -117.871490 217 59ft 0kts
10-Feb-19 22:22 33.675429 -117.871490 217 59ft 0kts
10-Feb-19 22:23 33.675429 -117.871490 217 59ft 0kts
10-Feb-19 22:24 34.251692 -119.170683 83 4181ft 98kts

Navigation Log

Ident Type
Flight plan parsing failed, navigation log unavailable